Time,TemperatureF,DewpointF,PressureIn,WindDirection,WindDirectionDegrees,WindSpeedMPH,WindSpeedGustMPH,Humidity,HourlyPrecipIn,Conditions,Clouds,dailyrainin,SolarRadiationWatts/m^2,SoftwareType,DateUTC
2013-03-22 00:00:00,60.7,54.8,29.92,West,266,0.0,0.0,81,0.00,,CLR,0.00,76.00,VWS V14.01,2013-03-22 04:00:00,
2013-03-22 00:05:00,60.5,54.7,29.92,West,266,0.0,0.0,81,0.00,,CLR,0.00,76.00,VWS V14.01,2013-03-22 04:05:00,
2013-03-22 00:10:00,60.3,54.8,29.92,West,266,0.0,0.0,82,0.00,,CLR,0.00,76.00,VWS V14.01,2013-03-22 04:10:00,
2013-03-22 00:15:00,60.2,54.7,29.92,West,266,0.0,0.0,82,0.00,,CLR,0.00,76.00,VWS V14.01,2013-03-22 04:15:00,
2013-03-22 00:20:00,60.0,54.5,29.92,West,266,0.0,0.0,82,0.00,,CLR,0.00,76.00,VWS V14.01,2013-03-22 04:20:00,
2013-03-22 00:25:00,60.0,54.8,29.92,West,266,0.0,0.0,83,0.00,,CLR,0.00,76.00,VWS V14.01,2013-03-22 04:25:00,
2013-03-22 00:30:00,59.9,54.7,29.92,West,265,0.0,0.0,83,0.00,,CLR,0.00,76.00,VWS V14.01,2013-03-22 04:30:00,
2013-03-22 00:35:00,59.8,55.0,29.92,West,265,0.0,0.0,84,0.00,,CLR,0.00,76.00,VWS V14.01,2013-03-22 04:35:00,
2013-03-22 00:40:00,59.8,55.0,29.91,West,266,0.0,0.0,84,0.00,,CLR,0.00,76.00,VWS V14.01,2013-03-22 04:40:00,
2013-03-22 00:45:00,59.7,54.9,29.91,West,265,0.0,0.0,84,0.00,,CLR,0.00,76.00,VWS V14.01,2013-03-22 04:45:00,
2013-03-22 00:50:00,59.6,54.8,29.91,West,265,0.0,0.0,84,0.00,,CLR,0.00,76.00,VWS V14.01,2013-03-22 04:50:00,
2013-03-22 00:55:00,59.5,54.7,29.91,West,265,0.0,0.0,84,0.00,,CLR,0.00,76.00,VWS V14.01,2013-03-22 04:55:00,
2013-03-22 01:00:00,59.4,54.9,29.91,West,265,0.0,0.0,85,0.00,,CLR,0.00,76.00,VWS V14.01,2013-03-22 05:00:00,
2013-03-22 01:05:00,59.3,54.8,29.91,West,266,0.0,0.0,85,0.00,,CLR,0.00,76.00,VWS V14.01,2013-03-22 05:05:00,
2013-03-22 01:10:00,59.2,54.7,29.91,West,265,0.0,0.0,85,0.00,,CLR,0.00,76.00,VWS V14.01,2013-03-22 05:10:00,
2013-03-22 01:15:00,59.1,54.6,29.90,West,265,0.0,0.0,85,0.00,,CLR,0.00,76.00,VWS V14.01,2013-03-22 05:15:00,
2013-03-22 01:20:00,58.9,54.7,29.90,West,266,0.0,0.0,86,0.00,,CLR,0.00,76.00,VWS V14.01,2013-03-22 05:20:00,
2013-03-22 01:25:00,58.8,54.6,29.90,West,266,0.0,0.0,86,0.00,,CLR,0.00,76.00,VWS V14.01,2013-03-22 05:25:00,
2013-03-22 01:30:00,58.7,54.5,29.90,West,266,0.0,0.0,86,0.00,,CLR,0.00,76.00,VWS V14.01,2013-03-22 05:30:00,
2013-03-22 01:35:00,58.6,54.4,29.91,West,266,0.0,0.0,86,0.00,,CLR,0.00,76.00,VWS V14.01,2013-03-22 05:35:00,
2013-03-22 01:40:00,58.5,54.3,29.90,West,266,0.0,0.0,86,0.00,,CLR,0.00,76.00,VWS V14.01,2013-03-22 05:40:00,
2013-03-22 01:45:00,58.4,54.2,29.90,West,266,0.0,0.0,86,0.00,,CLR,0.00,76.00,VWS V14.01,2013-03-22 05:45:00,
2013-03-22 01:50:00,58.4,54.5,29.90,West,266,0.0,0.0,87,0.00,,CLR,0.00,76.00,VWS V14.01,2013-03-22 05:50:00,
2013-03-22 01:55:00,58.4,54.5,29.90,West,265,0.0,0.0,87,0.00,,CLR,0.00,76.00,VWS V14.01,2013-03-22 05:55:00,
2013-03-22 02:00:00,58.4,54.5,29.90,West,266,0.0,0.0,87,0.00,,CLR,0.00,76.00,VWS V14.01,2013-03-22 06:00:00,
2013-03-22 02:05:00,58.3,54.5,29.90,West,266,0.0,0.0,87,0.00,,CLR,0.00,76.00,VWS V14.01,2013-03-22 06:05:00,
2013-03-22 02:10:00,58.2,54.4,29.90,West,265,0.0,0.0,87,0.00,,CLR,0.00,76.00,VWS V14.01,2013-03-22 06:10:00,
2013-03-22 02:15:00,58.2,54.7,29.90,West,266,0.0,0.0,88,0.00,,CLR,0.00,76.00,VWS V14.01,2013-03-22 06:15:00,
2013-03-22 02:20:00,58.2,54.7,29.90,West,265,0.0,0.0,88,0.00,,CLR,0.00,76.00,VWS V14.01,2013-03-22 06:20:00,
2013-03-22 02:25:00,58.3,55.1,29.90,West,266,0.0,0.0,89,0.00,,CLR,0.00,76.00,VWS V14.01,2013-03-22 06:25:00,
2013-03-22 02:30:00,58.6,55.4,29.90,West,266,0.0,0.0,89,0.00,,CLR,0.00,76.00,VWS V14.01,2013-03-22 06:30:00,
2013-03-22 02:35:00,58.6,55.4,29.89,West,265,0.0,0.0,89,0.00,,CLR,0.00,76.00,VWS V14.01,2013-03-22 06:35:00,
2013-03-22 02:40:00,58.8,55.9,29.89,West,266,0.0,0.0,90,0.00,,CLR,0.00,76.00,VWS V14.01,2013-03-22 06:40:00,
2013-03-22 02:45:00,58.8,55.9,29.89,West,266,0.0,0.0,90,0.00,,CLR,0.00,76.00,VWS V14.01,2013-03-22 06:45:00,
2013-03-22 02:50:00,58.7,55.8,29.89,West,266,0.0,0.0,90,0.00,,CLR,0.00,76.00,VWS V14.01,2013-03-22 06:50:00,
2013-03-22 02:55:00,58.7,55.8,29.89,West,266,0.0,0.0,90,0.00,,CLR,0.00,76.00,VWS V14.01,2013-03-22 06:55:00,
2013-03-22 03:00:00,58.6,55.7,29.89,West,265,0.0,0.0,90,0.00,,CLR,0.00,76.00,VWS V14.01,2013-03-22 07:00:00,
2013-03-22 03:05:00,58.4,55.5,29.89,West,265,0.0,0.0,90,0.00,,CLR,0.00,76.00,VWS V14.01,2013-03-22 07:05:00,
2013-03-22 03:10:00,58.3,55.4,29.89,West,266,0.0,0.0,90,0.00,,CLR,0.00,76.00,VWS V14.01,2013-03-22 07:10:00,
2013-03-22 03:15:00,58.2,55.3,29.88,West,266,0.0,0.0,90,0.00,,CLR,0.00,76.00,VWS V14.01,2013-03-22 07:15:00,
2013-03-22 03:20:00,58.1,55.5,29.88,West,265,0.0,0.0,91,0.00,,CLR,0.00,76.00,VWS V14.01,2013-03-22 07:20:00,
2013-03-22 03:25:00,58.0,55.4,29.89,West,266,0.0,0.0,91,0.00,,CLR,0.00,76.00,VWS V14.01,2013-03-22 07:25:00,
2013-03-22 03:30:00,58.0,55.4,29.88,West,265,0.0,0.0,91,0.00,,CLR,0.00,76.00,VWS V14.01,2013-03-22 07:30:00,
2013-03-22 03:35:00,57.9,55.3,29.88,West,265,0.0,0.0,91,0.00,,CLR,0.00,76.00,VWS V14.01,2013-03-22 07:35:00,
2013-03-22 03:40:00,57.9,55.3,29.88,West,265,0.0,0.0,91,0.00,,CLR,0.00,76.00,VWS V14.01,2013-03-22 07:40:00,
2013-03-22 03:45:00,57.9,55.3,29.88,West,266,0.0,0.0,91,0.00,,CLR,0.00,76.00,VWS V14.01,2013-03-22 07:45:00,
2013-03-22 03:50:00,58.1,55.5,29.88,West,266,0.0,0.0,91,0.00,,CLR,0.00,76.00,VWS V14.01,2013-03-22 07:50:00,
2013-03-22 03:55:00,58.2,55.6,29.88,West,266,0.0,0.0,91,0.00,,CLR,0.00,76.00,VWS V14.01,2013-03-22 07:55:00,
2013-03-22 04:00:00,58.3,56.0,29.88,West,266,0.0,0.0,92,0.00,,CLR,0.00,76.00,VWS V14.01,2013-03-22 08:00:00,
2013-03-22 04:05:00,58.3,56.0,29.88,West,266,0.0,0.0,92,0.00,,CLR,0.00,76.00,VWS V14.01,2013-03-22 08:05:00,
2013-03-22 04:10:00,58.3,56.0,29.88,West,266,0.0,0.0,92,0.00,,CLR,0.00,76.00,VWS V14.01,2013-03-22 08:10:00,
2013-03-22 04:15:00,58.3,56.0,29.88,West,265,0.0,0.0,92,0.00,,CLR,0.00,76.00,VWS V14.01,2013-03-22 08:15:00,
2013-03-22 04:20:00,58.2,55.9,29.88,West,265,0.0,0.0,92,0.00,,CLR,0.00,76.00,VWS V14.01,2013-03-22 08:20:00,
2013-03-22 04:25:00,58.1,55.8,29.88,West,266,0.0,0.0,92,0.00,,CLR,0.00,76.00,VWS V14.01,2013-03-22 08:25:00,
2013-03-22 04:30:00,58.2,55.9,29.87,West,266,0.0,0.0,92,0.00,,CLR,0.00,76.00,VWS V14.01,2013-03-22 08:30:00,
2013-03-22 04:35:00,58.2,55.9,29.87,West,266,0.0,0.0,92,0.00,,CLR,0.00,76.00,VWS V14.01,2013-03-22 08:35:00,
2013-03-22 04:40:00,58.2,55.9,29.87,West,265,0.0,0.0,92,0.00,,CLR,0.00,76.00,VWS V14.01,2013-03-22 08:40:00,
2013-03-22 04:45:00,58.1,55.8,29.87,West,265,0.0,0.0,92,0.00,,CLR,0.00,76.00,VWS V14.01,2013-03-22 08:45:00,
2013-03-22 04:50:00,58.1,55.8,29.87,West,266,0.0,0.0,92,0.00,,CLR,0.00,76.00,VWS V14.01,2013-03-22 08:50:00,
2013-03-22 04:55:00,58.1,55.8,29.87,West,265,0.0,0.0,92,0.00,,CLR,0.00,76.00,VWS V14.01,2013-03-22 08:55:00,
2013-03-22 05:00:00,58.0,55.7,29.87,West,265,0.0,0.0,92,0.00,,CLR,0.00,76.00,VWS V14.01,2013-03-22 09:00:00,
2013-03-22 05:05:00,58.0,55.7,29.87,West,266,0.0,0.0,92,0.00,,CLR,0.00,76.00,VWS V14.01,2013-03-22 09:05:00,
2013-03-22 05:10:00,58.0,55.7,29.87,West,266,0.0,0.0,92,0.00,,CLR,0.00,76.00,VWS V14.01,2013-03-22 09:10:00,
2013-03-22 05:15:00,57.9,55.6,29.87,West,266,0.0,0.0,92,0.00,,CLR,0.00,76.00,VWS V14.01,2013-03-22 09:15:00,
2013-03-22 05:20:00,57.8,55.5,29.87,West,266,0.0,0.0,92,0.00,,CLR,0.00,76.00,VWS V14.01,2013-03-22 09:20:00,
2013-03-22 05:25:00,57.8,55.5,29.88,West,266,0.0,0.0,92,0.00,,CLR,0.00,76.00,VWS V14.01,2013-03-22 09:25:00,
2013-03-22 05:30:00,57.8,55.5,29.88,West,266,0.0,0.0,92,0.00,,CLR,0.00,76.00,VWS V14.01,2013-03-22 09:30:00,
2013-03-22 05:35:00,57.8,55.5,29.88,West,266,0.0,0.0,92,0.00,,CLR,0.00,76.00,VWS V14.01,2013-03-22 09:35:00,
2013-03-22 05:40:00,57.8,55.5,29.88,West,266,0.0,0.0,92,0.00,,CLR,0.00,76.00,VWS V14.01,2013-03-22 09:40:00,
2013-03-22 05:45:00,57.9,55.6,29.88,West,265,0.0,0.0,92,0.00,,CLR,0.00,76.00,VWS V14.01,2013-03-22 09:45:00,
2013-03-22 05:50:00,58.0,55.7,29.88,West,265,0.0,1.0,92,0.00,,CLR,0.00,76.00,VWS V14.01,2013-03-22 09:50:00,
2013-03-22 05:55:00,57.8,55.5,29.89,West,265,0.0,0.0,92,0.00,,CLR,0.00,76.00,VWS V14.01,2013-03-22 09:55:00,
2013-03-22 06:00:00,57.3,55.0,29.89,West,266,0.0,1.0,92,0.00,,CLR,0.00,76.00,VWS V14.01,2013-03-22 10:00:00,
2013-03-22 06:05:00,57.3,55.0,29.89,West,266,0.0,0.0,92,0.00,,CLR,0.00,76.00,VWS V14.01,2013-03-22 10:05:00,
2013-03-22 06:10:00,57.4,55.1,29.89,West,266,0.0,0.0,92,0.00,,CLR,0.00,76.00,VWS V14.01,2013-03-22 10:10:00,
2013-03-22 06:15:00,57.6,55.3,29.89,West,266,0.0,0.0,92,0.00,,CLR,0.00,76.00,VWS V14.01,2013-03-22 10:15:00,
2013-03-22 06:20:00,58.0,55.7,29.89,West,266,0.0,0.0,92,0.00,,CLR,0.00,76.00,VWS V14.01,2013-03-22 10:20:00,
2013-03-22 06:25:00,58.2,55.9,29.90,West,265,0.0,1.0,92,0.00,,CLR,0.00,76.00,VWS V14.01,2013-03-22 10:25:00,
2013-03-22 06:30:00,58.2,55.9,29.90,West,265,0.0,0.0,92,0.00,,CLR,0.00,76.00,VWS V14.01,2013-03-22 10:30:00,
2013-03-22 06:35:00,58.2,55.6,29.90,West,266,0.0,1.0,91,0.00,,CLR,0.00,76.00,VWS V14.01,2013-03-22 10:35:00,
2013-03-22 06:40:00,58.1,55.5,29.90,West,266,0.0,0.0,91,0.00,,CLR,0.00,76.00,VWS V14.01,2013-03-22 10:40:00,
2013-03-22 06:45:00,58.2,55.6,29.90,West,266,0.0,0.0,91,0.00,,CLR,0.00,76.00,VWS V14.01,2013-03-22 10:45:00,
2013-03-22 06:50:00,58.2,55.3,29.90,West,266,0.0,0.0,90,0.00,,CLR,0.00,76.00,VWS V14.01,2013-03-22 10:50:00,
2013-03-22 06:55:00,58.3,55.4,29.91,West,266,0.0,0.0,90,0.00,,CLR,0.00,76.00,VWS V14.01,2013-03-22 10:55:00,
2013-03-22 07:00:00,58.4,55.5,29.91,West,265,0.0,0.0,90,0.00,,CLR,0.00,76.00,VWS V14.01,2013-03-22 11:00:00,
2013-03-22 07:05:00,58.5,55.6,29.92,West,266,0.0,0.0,90,0.00,,CLR,0.00,76.00,VWS V14.01,2013-03-22 11:05:00,
2013-03-22 07:10:00,58.5,55.6,29.92,West,265,0.0,0.0,90,0.00,,CLR,0.00,76.00,VWS V14.01,2013-03-22 11:10:00,
2013-03-22 07:15:00,58.7,55.8,29.92,West,266,0.0,0.0,90,0.00,,CLR,0.00,76.00,VWS V14.01,2013-03-22 11:15:00,
2013-03-22 07:20:00,58.9,56.0,29.92,West,266,0.0,0.0,90,0.00,,CLR,0.00,77.00,VWS V14.01,2013-03-22 11:20:00,
2013-03-22 07:25:00,58.9,56.0,29.92,West,265,0.0,0.0,90,0.00,,CLR,0.00,79.00,VWS V14.01,2013-03-22 11:25:00,
2013-03-22 07:30:00,58.8,55.6,29.92,West,266,0.0,0.0,89,0.00,,CLR,0.00,83.00,VWS V14.01,2013-03-22 11:30:00,
2013-03-22 07:35:00,59.0,55.8,29.92,West,265,0.0,0.0,89,0.00,,CLR,0.00,88.00,VWS V14.01,2013-03-22 11:35:00,
2013-03-22 07:40:00,59.1,55.5,29.92,West,265,0.0,0.0,88,0.00,,CLR,0.00,91.00,VWS V14.01,2013-03-22 11:40:00,
2013-03-22 07:45:00,59.3,55.8,29.92,West,266,0.0,0.0,88,0.00,,CLR,0.00,98.00,VWS V14.01,2013-03-22 11:45:00,
2013-03-22 07:50:00,59.5,56.0,29.92,West,266,0.0,0.0,88,0.00,,CLR,0.00,104.00,VWS V14.01,2013-03-22 11:50:00,
2013-03-22 07:55:00,59.9,56.0,29.93,West,265,0.0,0.0,87,0.00,,CLR,0.00,114.00,VWS V14.01,2013-03-22 11:55:00,
2013-03-22 08:00:00,60.2,56.0,29.93,West,266,0.0,0.0,86,0.00,,CLR,0.00,128.00,VWS V14.01,2013-03-22 12:00:00,
2013-03-22 08:05:00,60.5,56.3,29.93,West,265,1.0,1.0,86,0.00,,CLR,0.00,125.00,VWS V14.01,2013-03-22 12:05:00,
2013-03-22 08:10:00,61.0,56.5,29.93,West,266,1.0,2.0,85,0.00,,CLR,0.00,128.00,VWS V14.01,2013-03-22 12:10:00,
2013-03-22 08:15:00,61.4,56.5,29.93,West,266,0.0,1.0,84,0.00,,CLR,0.00,128.00,VWS V14.01,2013-03-22 12:15:00,
2013-03-22 08:20:00,61.7,56.5,29.93,West,266,0.0,1.0,83,0.00,,CLR,0.00,214.00,VWS V14.01,2013-03-22 12:20:00,
2013-03-22 08:25:00,62.1,56.9,29.93,ENE,58,0.0,3.0,83,0.00,,CLR,0.00,257.00,VWS V14.01,2013-03-22 12:25:00,
2013-03-22 08:30:00,62.6,57.0,29.94,ENE,58,1.0,1.0,82,0.00,,CLR,0.00,165.00,VWS V14.01,2013-03-22 12:30:00,
2013-03-22 08:35:00,63.1,57.2,29.94,ENE,58,0.0,1.0,81,0.00,,CLR,0.00,162.00,VWS V14.01,2013-03-22 12:35:00,
2013-03-22 08:40:00,63.5,57.6,29.94,ENE,58,1.0,2.0,81,0.00,,CLR,0.00,278.00,VWS V14.01,2013-03-22 12:40:00,
2013-03-22 08:45:00,64.1,57.8,29.95,ENE,58,0.0,2.0,80,0.00,,CLR,0.00,130.00,VWS V14.01,2013-03-22 12:45:00,
2013-03-22 08:50:00,64.9,58.2,29.95,ENE,59,0.0,3.0,79,0.00,,CLR,0.00,185.00,VWS V14.01,2013-03-22 12:50:00,
2013-03-22 08:55:00,65.8,58.8,29.95,ENE,59,2.0,2.0,78,0.00,,CLR,0.00,339.00,VWS V14.01,2013-03-22 12:55:00,
2013-03-22 09:00:00,66.6,59.2,29.95,ENE,59,0.0,1.0,77,0.00,,CLR,0.00,236.00,VWS V14.01,2013-03-22 13:00:00,
2013-03-22 09:05:00,67.1,58.9,29.95,ENE,59,1.0,2.0,75,0.00,,CLR,0.00,241.00,VWS V14.01,2013-03-22 13:05:00,
2013-03-22 09:10:00,67.5,59.3,29.96,ENE,59,0.0,0.0,75,0.00,,CLR,0.00,232.00,VWS V14.01,2013-03-22 13:10:00,
2013-03-22 09:15:00,67.9,59.7,29.96,ENE,59,1.0,1.0,75,0.00,,CLR,0.00,251.00,VWS V14.01,2013-03-22 13:15:00,
2013-03-22 09:20:00,68.6,60.0,29.96,ENE,59,1.0,2.0,74,0.00,,CLR,0.00,322.00,VWS V14.01,2013-03-22 13:20:00,
2013-03-22 09:25:00,69.4,60.4,29.96,ENE,59,0.0,1.0,73,0.00,,CLR,0.00,246.00,VWS V14.01,2013-03-22 13:25:00,
2013-03-22 09:30:00,70.0,60.2,29.96,East,95,0.0,2.0,71,0.00,,CLR,0.00,255.00,VWS V14.01,2013-03-22 13:30:00,
2013-03-22 09:35:00,70.7,60.5,29.96,ESE,120,3.0,3.0,70,0.00,,CLR,0.00,483.00,VWS V14.01,2013-03-22 13:35:00,
2013-03-22 09:40:00,71.5,60.4,29.96,SE,140,7.0,13.0,68,0.00,,CLR,0.00,497.00,VWS V14.01,2013-03-22 13:40:00,
2013-03-22 09:45:00,72.0,60.0,29.96,East,96,3.0,9.0,66,0.00,,CLR,0.00,524.00,VWS V14.01,2013-03-22 13:45:00,
2013-03-22 09:50:00,72.6,60.6,29.96,East,99,5.0,5.0,66,0.00,,CLR,0.00,476.00,VWS V14.01,2013-03-22 13:50:00,
2013-03-22 09:55:00,73.0,60.5,29.96,ESE,121,4.0,7.0,65,0.00,,CLR,0.00,541.00,VWS V14.01,2013-03-22 13:55:00,
2013-03-22 10:00:00,73.5,60.6,29.96,SE,135,3.0,14.0,64,0.00,,CLR,0.00,540.00,VWS V14.01,2013-03-22 14:00:00,
2013-03-22 10:05:00,73.7,60.3,29.96,East,90,6.0,10.0,63,0.00,,CLR,0.00,575.00,VWS V14.01,2013-03-22 14:05:00,
2013-03-22 10:10:00,73.8,60.4,29.96,ESE,104,4.0,13.0,63,0.00,,CLR,0.00,592.00,VWS V14.01,2013-03-22 14:10:00,
2013-03-22 10:15:00,74.0,60.6,29.96,ESE,109,12.0,12.0,63,0.00,,CLR,0.00,403.00,VWS V14.01,2013-03-22 14:15:00,
2013-03-22 10:20:00,74.2,60.8,29.97,East,92,4.0,11.0,63,0.00,,CLR,0.00,404.00,VWS V14.01,2013-03-22 14:20:00,
2013-03-22 10:25:00,74.0,60.2,29.96,SE,131,6.0,14.0,62,0.00,,CLR,0.00,504.00,VWS V14.01,2013-03-22 14:25:00,
2013-03-22 10:30:00,73.9,60.5,29.96,ESE,112,9.0,12.0,63,0.00,,CLR,0.00,744.00,VWS V14.01,2013-03-22 14:30:00,
2013-03-22 10:35:00,74.1,60.7,29.96,SE,140,5.0,9.0,63,0.00,,CLR,0.00,647.00,VWS V14.01,2013-03-22 14:35:00,
2013-03-22 10:40:00,74.2,60.8,29.97,East,101,6.0,8.0,63,0.00,,CLR,0.00,362.00,VWS V14.01,2013-03-22 14:40:00,
2013-03-22 10:45:00,74.1,60.3,29.97,SE,126,6.0,11.0,62,0.00,,CLR,0.00,399.00,VWS V14.01,2013-03-22 14:45:00,
2013-03-22 10:50:00,74.0,60.6,29.97,ESE,115,5.0,12.0,63,0.00,,CLR,0.00,438.00,VWS V14.01,2013-03-22 14:50:00,
2013-03-22 10:55:00,74.3,60.9,29.97,SSE,163,6.0,11.0,63,0.00,,CLR,0.00,397.00,VWS V14.01,2013-03-22 14:55:00,
2013-03-22 11:00:00,74.4,60.5,29.97,SE,125,7.0,10.0,62,0.00,,CLR,0.00,374.00,VWS V14.01,2013-03-22 15:00:00,
2013-03-22 11:05:00,74.4,60.5,29.97,ESE,111,5.0,9.0,62,0.00,,CLR,0.00,383.00,VWS V14.01,2013-03-22 15:05:00,
2013-03-22 11:10:00,74.4,61.0,29.97,SE,137,11.0,11.0,63,0.00,,CLR,0.00,455.00,VWS V14.01,2013-03-22 15:10:00,
2013-03-22 11:15:00,74.2,60.8,29.97,ESE,109,8.0,11.0,63,0.00,,CLR,0.00,429.00,VWS V14.01,2013-03-22 15:15:00,
2013-03-22 11:20:00,74.5,61.1,29.97,ESE,107,4.0,11.0,63,0.00,,CLR,0.00,515.00,VWS V14.01,2013-03-22 15:20:00,
2013-03-22 11:25:00,74.8,61.4,29.97,ESE,109,12.0,13.0,63,0.00,,CLR,0.00,424.00,VWS V14.01,2013-03-22 15:25:00,
2013-03-22 11:30:00,74.8,60.9,29.97,SE,140,5.0,10.0,62,0.00,,CLR,0.00,448.00,VWS V14.01,2013-03-22 15:30:00,
2013-03-22 11:35:00,74.9,61.0,29.97,SE,137,14.0,14.0,62,0.00,,CLR,0.00,478.00,VWS V14.01,2013-03-22 15:35:00,
2013-03-22 11:40:00,75.0,61.1,29.97,SSE,148,7.0,16.0,62,0.00,,CLR,0.00,450.00,VWS V14.01,2013-03-22 15:40:00,
2013-03-22 11:45:00,75.5,61.6,29.97,ESE,111,5.0,9.0,62,0.00,,CLR,0.00,550.00,VWS V14.01,2013-03-22 15:45:00,
2013-03-22 11:50:00,75.9,61.5,29.97,ESE,111,7.0,12.0,61,0.00,,CLR,0.00,480.00,VWS V14.01,2013-03-22 15:50:00,
2013-03-22 11:55:00,75.7,61.3,29.97,SSE,147,11.0,13.0,61,0.00,,CLR,0.00,531.00,VWS V14.01,2013-03-22 15:55:00,
2013-03-22 12:00:00,75.7,61.3,29.97,ESE,103,7.0,14.0,61,0.00,,BKN050,0.00,482.00,VWS V14.01,2013-03-22 16:00:00,
2013-03-22 12:05:00,75.5,61.6,29.97,ESE,103,9.0,10.0,62,0.00,,BKN050,0.00,431.00,VWS V14.01,2013-03-22 16:05:00,
2013-03-22 12:10:00,75.3,60.9,29.98,SE,132,5.0,17.0,61,0.00,,BKN050,0.00,476.00,VWS V14.01,2013-03-22 16:10:00,
2013-03-22 12:15:00,75.3,60.9,29.98,East,81,2.0,11.0,61,0.00,,BKN050,0.00,448.00,VWS V14.01,2013-03-22 16:15:00,
2013-03-22 12:20:00,75.1,60.8,29.98,SE,135,6.0,14.0,61,0.00,,BKN050,0.00,357.00,VWS V14.01,2013-03-22 16:20:00,
2013-03-22 12:25:00,74.9,61.0,29.98,ESE,105,6.0,11.0,62,0.00,,BKN050,0.00,410.00,VWS V14.01,2013-03-22 16:25:00,
2013-03-22 12:30:00,74.6,60.7,29.98,SE,138,6.0,14.0,62,0.00,,BKN050,0.00,327.00,VWS V14.01,2013-03-22 16:30:00,
2013-03-22 12:35:00,74.2,60.4,29.98,ESE,115,2.0,10.0,62,0.00,,BKN050,0.00,334.00,VWS V14.01,2013-03-22 16:35:00,
2013-03-22 12:40:00,74.0,60.2,29.98,ESE,103,3.0,15.0,62,0.00,,BKN050,0.00,448.00,VWS V14.01,2013-03-22 16:40:00,
2013-03-22 12:45:00,74.2,60.4,29.98,SSE,147,11.0,16.0,62,0.00,,BKN050,0.00,323.00,VWS V14.01,2013-03-22 16:45:00,
2013-03-22 12:50:00,74.0,60.6,29.98,East,95,4.0,7.0,63,0.00,,BKN050,0.00,399.00,VWS V14.01,2013-03-22 16:50:00,
2013-03-22 12:55:00,73.9,60.1,29.98,ESE,113,4.0,7.0,62,0.00,,BKN050,0.00,364.00,VWS V14.01,2013-03-22 16:55:00,
2013-03-22 13:00:00,73.9,60.5,29.97,ESE,117,6.0,11.0,63,0.00,,BKN050,0.00,448.00,VWS V14.01,2013-03-22 17:00:00,
2013-03-22 13:05:00,74.0,60.6,29.97,East,87,10.0,12.0,63,0.00,,BKN051,0.00,450.00,VWS V14.01,2013-03-22 17:05:00,
2013-03-22 13:10:00,74.1,60.7,29.96,ENE,61,2.0,15.0,63,0.00,,BKN051,0.00,517.00,VWS V14.01,2013-03-22 17:10:00,
2013-03-22 13:15:00,74.4,60.5,29.96,SE,128,13.0,19.0,62,0.00,,BKN051,0.00,448.00,VWS V14.01,2013-03-22 17:15:00,
2013-03-22 13:20:00,74.4,60.5,29.97,SE,126,9.0,11.0,62,0.00,,BKN051,0.00,287.00,VWS V14.01,2013-03-22 17:20:00,
2013-03-22 13:24:00,74.0,60.2,29.97,ESE,121,7.0,14.0,62,0.00,,BKN051,0.00,283.00,VWS V14.01,2013-03-22 17:24:00,
2013-03-22 13:29:00,73.8,60.4,29.96,ESE,117,4.0,14.0,63,0.00,,BKN051,0.00,292.00,VWS V14.01,2013-03-22 17:29:00,
2013-03-22 13:34:00,73.9,60.5,29.96,ESE,110,10.0,10.0,63,0.00,,BKN051,0.00,475.00,VWS V14.01,2013-03-22 17:34:00,
2013-03-22 13:39:00,74.2,60.8,29.95,ESE,106,12.0,13.0,63,0.00,,BKN051,0.00,534.00,VWS V14.01,2013-03-22 17:39:00,
2013-03-22 13:44:00,74.7,60.8,29.95,SE,124,6.0,10.0,62,0.00,,BKN051,0.00,513.00,VWS V14.01,2013-03-22 17:44:00,
2013-03-22 13:49:00,75.1,60.8,29.95,SSE,148,15.0,15.0,61,0.00,,BKN051,0.00,631.00,VWS V14.01,2013-03-22 17:49:00,
2013-03-22 13:54:00,75.0,60.7,29.95,SE,137,4.0,12.0,61,0.00,,BKN051,0.00,364.00,VWS V14.01,2013-03-22 17:54:00,
2013-03-22 13:59:00,75.1,60.3,29.94,SE,140,5.0,14.0,60,0.00,,BKN051,0.00,643.00,VWS V14.01,2013-03-22 17:59:00,
2013-03-22 14:04:00,75.6,61.2,29.93,ESE,107,12.0,12.0,61,0.00,,BKN051,0.00,1069.00,VWS V14.01,2013-03-22 18:04:00,
2013-03-22 14:09:00,75.7,60.4,29.94,SE,132,4.0,13.0,59,0.00,,BKN051,0.00,380.00,VWS V14.01,2013-03-22 18:09:00,
2013-03-22 14:14:00,75.5,60.2,29.94,SE,134,5.0,10.0,59,0.00,,BKN051,0.00,313.00,VWS V14.01,2013-03-22 18:14:00,
2013-03-22 14:19:00,75.0,60.2,29.94,SE,134,4.0,19.0,60,0.00,,BKN051,0.00,371.00,VWS V14.01,2013-03-22 18:19:00,
2013-03-22 14:24:00,74.8,60.0,29.94,ESE,121,4.0,13.0,60,0.00,,BKN051,0.00,272.00,VWS V14.01,2013-03-22 18:24:00,
2013-03-22 14:29:00,74.4,60.1,29.93,SE,145,10.0,14.0,61,0.00,,BKN051,0.00,299.00,VWS V14.01,2013-03-22 18:29:00,
2013-03-22 14:34:00,74.3,60.0,29.93,SE,138,2.0,16.0,61,0.00,,BKN051,0.00,438.00,VWS V14.01,2013-03-22 18:34:00,
2013-03-22 14:39:00,74.6,60.3,29.93,SSE,153,2.0,10.0,61,0.00,,BKN051,0.00,529.00,VWS V14.01,2013-03-22 18:39:00,
2013-03-22 14:44:00,74.9,60.1,29.92,ESE,116,10.0,17.0,60,0.00,,BKN051,0.00,563.00,VWS V14.01,2013-03-22 18:44:00,
2013-03-22 14:49:00,75.0,60.7,29.92,ESE,103,9.0,14.0,61,0.00,,BKN051,0.00,566.00,VWS V14.01,2013-03-22 18:49:00,
2013-03-22 14:54:00,74.9,60.6,29.92,ENE,59,6.0,12.0,61,0.00,,BKN051,0.00,425.00,VWS V14.01,2013-03-22 18:54:00,
2013-03-22 14:59:00,74.9,60.6,29.92,ESE,113,4.0,6.0,61,0.00,,BKN051,0.00,315.00,VWS V14.01,2013-03-22 18:59:00,
2013-03-22 15:04:00,75.0,60.7,29.92,ESE,115,5.0,12.0,61,0.00,,BKN051,0.00,538.00,VWS V14.01,2013-03-22 19:04:00,
2013-03-22 15:09:00,74.9,60.6,29.92,ESE,118,4.0,11.0,61,0.00,,BKN051,0.00,413.00,VWS V14.01,2013-03-22 19:09:00,
2013-03-22 15:14:00,74.8,60.5,29.92,SSE,153,9.0,14.0,61,0.00,,BKN045,0.00,301.00,VWS V14.01,2013-03-22 19:14:00,
2013-03-22 15:19:00,74.5,60.6,29.91,SSE,153,7.0,13.0,62,0.00,,BKN045,0.00,336.00,VWS V14.01,2013-03-22 19:19:00,
2013-03-22 15:24:00,74.4,61.4,29.91,ESE,117,6.0,9.0,64,0.00,,BKN045,0.00,288.00,VWS V14.01,2013-03-22 19:24:00,
2013-03-22 15:29:00,73.9,61.4,29.90,SSE,157,5.0,13.0,65,0.00,,BKN045,0.00,330.00,VWS V14.01,2013-03-22 19:29:00,
2013-03-22 15:34:00,73.3,61.3,29.90,SE,124,5.0,16.0,66,0.00,,BKN045,0.00,297.00,VWS V14.01,2013-03-22 19:34:00,
2013-03-22 15:39:00,72.9,60.5,29.90,SE,132,4.0,13.0,65,0.01,,BKN045,0.01,346.00,VWS V14.01,2013-03-22 19:39:00,
2013-03-22 15:44:00,73.2,61.2,29.90,SSE,163,9.0,16.0,66,0.01,,BKN045,0.01,399.00,VWS V14.01,2013-03-22 19:44:00,
2013-03-22 15:49:00,73.6,61.5,29.90,ESE,122,9.0,15.0,66,0.01,,BKN045,0.01,276.00,VWS V14.01,2013-03-22 19:49:00,
2013-03-22 15:54:00,73.7,61.7,29.90,SE,136,16.0,16.0,66,0.01,,BKN045,0.01,239.00,VWS V14.01,2013-03-22 19:54:00,
2013-03-22 15:59:00,73.6,61.5,29.91,ESE,113,4.0,12.0,66,0.01,,BKN050,0.01,346.00,VWS V14.01,2013-03-22 19:59:00,
2013-03-22 16:04:00,73.8,61.7,29.91,ESE,107,6.0,14.0,66,0.01,,BKN050,0.01,353.00,VWS V14.01,2013-03-22 20:04:00,
2013-03-22 16:09:00,74.0,62.4,29.90,SE,135,2.0,11.0,67,0.01,,BKN050,0.01,346.00,VWS V14.01,2013-03-22 20:09:00,
2013-03-22 16:14:00,74.3,62.6,29.90,ESE,116,5.0,10.0,67,0.01,,BKN050,0.01,374.00,VWS V14.01,2013-03-22 20:14:00,
2013-03-22 16:19:00,74.6,62.5,29.90,ESE,122,3.0,11.0,66,0.01,,BKN050,0.01,311.00,VWS V14.01,2013-03-22 20:19:00,
2013-03-22 16:24:00,74.7,62.6,29.90,SSE,148,5.0,10.0,66,0.01,,BKN050,0.01,373.00,VWS V14.01,2013-03-22 20:24:00,
2013-03-22 16:29:00,74.8,62.7,29.90,SE,143,4.0,10.0,66,0.01,,BKN050,0.01,313.00,VWS V14.01,2013-03-22 20:29:00,
2013-03-22 16:34:00,74.7,63.0,29.89,ESE,121,10.0,14.0,67,0.01,,BKN050,0.01,260.00,VWS V14.01,2013-03-22 20:34:00,
2013-03-22 16:39:00,74.6,62.9,29.90,South,179,6.0,14.0,67,0.00,,BKN050,0.01,346.00,VWS V14.01,2013-03-22 20:39:00,
2013-03-22 16:44:00,74.5,62.8,29.89,SE,127,6.0,11.0,67,0.00,,BKN050,0.01,295.00,VWS V14.01,2013-03-22 20:44:00,
2013-03-22 16:49:00,74.7,63.5,29.89,SE,128,5.0,13.0,68,0.00,,BKN050,0.01,770.00,VWS V14.01,2013-03-22 20:49:00,
2013-03-22 16:54:00,75.0,63.3,29.89,SE,132,7.0,14.0,67,0.00,,BKN050,0.01,411.00,VWS V14.01,2013-03-22 20:54:00,
2013-03-22 16:59:00,75.4,64.1,29.89,SE,136,11.0,13.0,68,0.00,,BKN050,0.01,350.00,VWS V14.01,2013-03-22 20:59:00,
2013-03-22 17:04:00,75.3,64.0,29.89,SE,130,12.0,14.0,68,0.00,,BKN050,0.01,329.00,VWS V14.01,2013-03-22 21:04:00,
2013-03-22 17:09:00,75.2,63.9,29.89,South,170,14.0,17.0,68,0.00,,BKN050,0.01,564.00,VWS V14.01,2013-03-22 21:09:00,
2013-03-22 17:14:00,75.2,64.3,29.89,SSE,158,6.0,12.0,69,0.00,,BKN050,0.01,524.00,VWS V14.01,2013-03-22 21:14:00,
2013-03-22 17:19:00,75.2,64.3,29.89,SE,134,9.0,14.0,69,0.00,,BKN050,0.01,241.00,VWS V14.01,2013-03-22 21:19:00,
2013-03-22 17:24:00,74.9,64.1,29.90,SE,142,12.0,12.0,69,0.00,,BKN050,0.01,227.00,VWS V14.01,2013-03-22 21:24:00,
2013-03-22 17:29:00,74.7,64.3,29.90,SSE,153,5.0,10.0,70,0.00,,BKN050,0.01,288.00,VWS V14.01,2013-03-22 21:29:00,
2013-03-22 17:34:00,74.6,64.6,29.90,SE,126,5.0,15.0,71,0.00,,BKN050,0.01,501.00,VWS V14.01,2013-03-22 21:34:00,
2013-03-22 17:39:00,74.8,64.8,29.90,SSE,157,5.0,11.0,71,0.00,,BKN050,0.01,515.00,VWS V14.01,2013-03-22 21:39:00,
2013-03-22 17:44:00,75.0,65.0,29.90,SE,137,5.0,10.0,71,0.00,,BKN050,0.01,432.00,VWS V14.01,2013-03-22 21:44:00,
2013-03-22 17:49:00,75.3,65.7,29.89,ENE,76,12.0,12.0,72,0.00,,BKN050,0.01,431.00,VWS V14.01,2013-03-22 21:49:00,
2013-03-22 17:54:00,75.4,65.3,29.89,SSE,151,10.0,11.0,71,0.00,,BKN050,0.01,339.00,VWS V14.01,2013-03-22 21:54:00,
2013-03-22 17:59:00,75.5,65.8,29.89,SE,136,6.0,10.0,72,0.00,,BKN050,0.01,330.00,VWS V14.01,2013-03-22 21:59:00,
2013-03-22 18:04:00,75.5,65.8,29.89,SE,138,4.0,10.0,72,0.00,,BKN050,0.01,311.00,VWS V14.01,2013-03-22 22:04:00,
2013-03-22 18:09:00,75.2,65.6,29.90,SE,137,5.0,11.0,72,0.00,,BKN050,0.01,304.00,VWS V14.01,2013-03-22 22:09:00,
2013-03-22 18:14:00,75.1,65.5,29.89,East,94,2.0,10.0,72,0.00,,BKN050,0.01,301.00,VWS V14.01,2013-03-22 22:14:00,
2013-03-22 18:19:00,75.1,65.9,29.89,SE,138,8.0,13.0,73,0.00,,BKN050,0.01,294.00,VWS V14.01,2013-03-22 22:19:00,
2013-03-22 18:24:00,75.1,65.9,29.90,SE,126,4.0,10.0,73,0.00,,BKN050,0.01,174.00,VWS V14.01,2013-03-22 22:24:00,
2013-03-22 18:29:00,74.9,65.7,29.90,SE,131,4.0,16.0,73,0.00,,BKN050,0.01,141.00,VWS V14.01,2013-03-22 22:29:00,
2013-03-22 18:34:00,74.8,66.0,29.90,SE,140,9.0,15.0,74,0.00,,BKN050,0.01,179.00,VWS V14.01,2013-03-22 22:34:00,
2013-03-22 18:39:00,74.6,65.8,29.90,SE,145,6.0,10.0,74,0.00,,BKN050,0.01,149.00,VWS V14.01,2013-03-22 22:39:00,
2013-03-22 18:44:00,74.6,66.2,29.90,SSE,157,10.0,10.0,75,0.00,,BKN050,0.01,141.00,VWS V14.01,2013-03-22 22:44:00,
2013-03-22 18:49:00,74.5,66.1,29.90,East,80,7.0,11.0,75,0.00,,BKN050,0.01,134.00,VWS V14.01,2013-03-22 22:49:00,
2013-03-22 18:54:00,74.3,65.9,29.90,ESE,109,5.0,13.0,75,0.00,,BKN050,0.01,123.00,VWS V14.01,2013-03-22 22:54:00,
2013-03-22 18:59:00,74.2,66.2,29.90,SE,138,2.0,14.0,76,0.00,,BKN050,0.01,109.00,VWS V14.01,2013-03-22 22:59:00,
2013-03-22 19:04:00,74.0,66.0,29.90,SE,145,4.0,14.0,76,0.00,,BKN050,0.01,102.00,VWS V14.01,2013-03-22 23:04:00,
2013-03-22 19:09:00,73.9,66.2,29.91,SSE,159,5.0,12.0,77,0.00,,BKN050,0.01,93.00,VWS V14.01,2013-03-22 23:09:00,
2013-03-22 19:14:00,73.8,66.5,29.91,SE,145,4.0,9.0,78,0.00,,BKN050,0.01,84.00,VWS V14.01,2013-03-22 23:14:00,
2013-03-22 19:19:00,73.7,66.4,29.91,ESE,113,9.0,10.0,78,0.00,,BKN050,0.01,81.00,VWS V14.01,2013-03-22 23:19:00,
2013-03-22 19:24:00,73.6,66.3,29.91,SE,144,4.0,5.0,78,0.00,,BKN050,0.01,81.00,VWS V14.01,2013-03-22 23:24:00,
2013-03-22 19:29:00,73.6,66.7,29.91,SE,140,6.0,7.0,79,0.00,,BKN050,0.01,79.00,VWS V14.01,2013-03-22 23:29:00,
2013-03-22 19:34:00,73.5,66.6,29.91,SE,146,6.0,10.0,79,0.00,,SCT030,0.01,76.00,VWS V14.01,2013-03-22 23:34:00,
2013-03-22 19:39:00,73.4,66.5,29.91,SE,138,7.0,7.0,79,0.00,,SCT030,0.01,76.00,VWS V14.01,2013-03-22 23:39:00,
2013-03-22 19:44:00,73.4,66.9,29.91,SE,138,4.0,11.0,80,0.00,,SCT030,0.01,76.00,VWS V14.01,2013-03-22 23:44:00,
2013-03-22 19:49:00,73.3,66.8,29.91,SE,134,14.0,14.0,80,0.00,,SCT030,0.01,76.00,VWS V14.01,2013-03-22 23:49:00,
2013-03-22 19:54:00,73.3,66.8,29.91,SE,127,2.0,5.0,80,0.00,,SCT030,0.01,76.00,VWS V14.01,2013-03-22 23:54:00,
2013-03-22 19:59:00,73.3,67.1,29.91,SSE,147,8.0,11.0,81,0.00,,SCT030,0.01,76.00,VWS V14.01,2013-03-22 23:59:00,
2013-03-22 20:04:00,73.2,67.0,29.91,SE,135,2.0,6.0,81,0.00,,SCT030,0.01,76.00,VWS V14.01,2013-03-23 00:04:00,
2013-03-22 20:09:00,73.2,67.0,29.91,SSE,157,4.0,10.0,81,0.00,,BKN035,0.01,76.00,VWS V14.01,2013-03-23 00:09:00,
2013-03-22 20:14:00,73.2,67.4,29.91,SSE,155,2.0,12.0,82,0.00,,BKN035,0.01,76.00,VWS V14.01,2013-03-23 00:14:00,
2013-03-22 20:19:00,73.3,67.5,29.91,SE,142,3.0,12.0,82,0.00,,BKN035,0.01,76.00,VWS V14.01,2013-03-23 00:19:00,
2013-03-22 20:24:00,73.3,67.5,29.91,SSE,162,8.0,11.0,82,0.00,,BKN035,0.01,74.00,VWS V14.01,2013-03-23 00:24:00,
2013-03-22 20:29:00,73.4,67.6,29.91,SSE,160,3.0,8.0,82,0.00,,BKN035,0.01,76.00,VWS V14.01,2013-03-23 00:29:00,
2013-03-22 20:34:00,73.4,67.6,29.92,SE,128,4.0,8.0,82,0.00,,BKN035,0.01,76.00,VWS V14.01,2013-03-23 00:34:00,
2013-03-22 20:39:00,73.5,67.7,29.92,SE,138,4.0,13.0,82,0.00,,BKN035,0.01,76.00,VWS V14.01,2013-03-23 00:39:00,
2013-03-22 20:44:00,73.5,67.7,29.92,SSE,150,6.0,13.0,82,0.00,,BKN035,0.01,76.00,VWS V14.01,2013-03-23 00:44:00,
2013-03-22 20:49:00,73.6,67.8,29.93,SE,134,6.0,8.0,82,0.00,,BKN035,0.01,76.00,VWS V14.01,2013-03-23 00:49:00,
2013-03-22 20:54:00,73.7,67.9,29.92,SE,130,3.0,11.0,82,0.00,,BKN035,0.01,76.00,VWS V14.01,2013-03-23 00:54:00,
2013-03-22 20:59:00,73.7,67.9,29.93,SSE,155,2.0,9.0,82,0.00,,BKN035,0.01,76.00,VWS V14.01,2013-03-23 00:59:00,
2013-03-22 21:04:00,73.7,67.9,29.92,SE,142,7.0,11.0,82,0.00,,BKN035,0.01,76.00,VWS V14.01,2013-03-23 01:04:00,
2013-03-22 21:09:00,73.7,68.2,29.92,SE,134,7.0,9.0,83,0.00,,BKN035,0.01,76.00,VWS V14.01,2013-03-23 01:09:00,
2013-03-22 21:14:00,73.7,68.2,29.92,SE,138,4.0,10.0,83,0.00,,BKN035,0.01,76.00,VWS V14.01,2013-03-23 01:14:00,
2013-03-22 21:19:00,73.6,68.1,29.92,SE,130,3.0,6.0,83,0.00,,BKN020,0.01,76.00,VWS V14.01,2013-03-23 01:19:00,
2013-03-22 21:24:00,73.5,68.0,29.93,SE,139,4.0,6.0,83,0.00,,BKN020,0.01,76.00,VWS V14.01,2013-03-23 01:24:00,
2013-03-22 21:29:00,73.5,68.0,29.94,SSE,147,1.0,6.0,83,0.00,,BKN020,0.01,76.00,VWS V14.01,2013-03-23 01:29:00,
2013-03-22 21:34:00,73.5,68.4,29.94,South,169,2.0,6.0,84,0.00,,BKN020,0.01,76.00,VWS V14.01,2013-03-23 01:34:00,
2013-03-22 21:39:00,73.5,68.4,29.94,ESE,122,6.0,11.0,84,0.00,,BKN020,0.01,76.00,VWS V14.01,2013-03-23 01:39:00,
2013-03-22 21:44:00,73.4,68.3,29.94,SE,136,0.0,5.0,84,0.00,,BKN020,0.01,76.00,VWS V14.01,2013-03-23 01:44:00,
2013-03-22 21:49:00,73.4,68.3,29.94,SE,142,0.0,6.0,84,0.00,,BKN020,0.01,76.00,VWS V14.01,2013-03-23 01:49:00,
2013-03-22 21:54:00,73.4,68.3,29.94,SSE,164,3.0,5.0,84,0.00,,BKN020,0.01,76.00,VWS V14.01,2013-03-23 01:54:00,
2013-03-22 21:59:00,73.3,68.5,29.94,SE,126,3.0,7.0,85,0.00,,BKN020,0.01,74.00,VWS V14.01,2013-03-23 01:59:00,
2013-03-22 22:04:00,73.3,68.5,29.94,SSE,160,4.0,4.0,85,0.00,,BKN025,0.01,76.00,VWS V14.01,2013-03-23 02:04:00,
2013-03-22 22:09:00,73.2,68.4,29.94,SSE,154,4.0,7.0,85,0.00,,BKN025,0.01,76.00,VWS V14.01,2013-03-23 02:09:00,
2013-03-22 22:14:00,73.1,68.3,29.94,SSE,152,3.0,8.0,85,0.00,,BKN025,0.01,76.00,VWS V14.01,2013-03-23 02:14:00,
2013-03-22 22:19:00,73.1,68.3,29.94,SE,145,2.0,5.0,85,0.00,,BKN025,0.01,76.00,VWS V14.01,2013-03-23 02:19:00,
2013-03-22 22:24:00,73.0,68.2,29.94,SE,138,3.0,6.0,85,0.00,,BKN025,0.01,76.00,VWS V14.01,2013-03-23 02:24:00,
2013-03-22 22:29:00,73.0,68.6,29.95,SE,141,3.0,5.0,86,0.00,,BKN025,0.01,76.00,VWS V14.01,2013-03-23 02:29:00,
2013-03-22 22:34:00,72.9,68.5,29.95,SE,136,1.0,6.0,86,0.00,,BKN025,0.01,76.00,VWS V14.01,2013-03-23 02:34:00,
2013-03-22 22:39:00,72.9,68.5,29.95,SE,140,4.0,4.0,86,0.00,,BKN025,0.01,76.00,VWS V14.01,2013-03-23 02:39:00,
2013-03-22 22:44:00,72.8,68.4,29.95,SSE,147,0.0,5.0,86,0.00,,BKN025,0.01,76.00,VWS V14.01,2013-03-23 02:44:00,
2013-03-22 22:49:00,72.8,68.4,29.95,SE,144,4.0,4.0,86,0.00,,BKN025,0.01,76.00,VWS V14.01,2013-03-23 02:49:00,
2013-03-22 22:54:00,72.8,68.7,29.95,SE,136,4.0,4.0,87,0.00,,BKN025,0.01,76.00,VWS V14.01,2013-03-23 02:54:00,
2013-03-22 22:59:00,72.7,68.6,29.95,SE,137,0.0,4.0,87,0.00,,BKN025,0.01,76.00,VWS V14.01,2013-03-23 02:59:00,
2013-03-22 23:04:00,72.7,68.6,29.95,SE,136,3.0,6.0,87,0.00,,BKN025,0.01,76.00,VWS V14.01,2013-03-23 03:04:00,
2013-03-22 23:09:00,72.6,68.8,29.94,SE,128,6.0,8.0,88,0.00,,BKN025,0.01,76.00,VWS V14.01,2013-03-23 03:09:00,
2013-03-22 23:14:00,72.6,68.8,29.94,SE,145,6.0,6.0,88,0.00,,BKN025,0.01,76.00,VWS V14.01,2013-03-23 03:14:00,
2013-03-22 23:19:00,72.6,68.8,29.94,ESE,114,0.0,5.0,88,0.00,,BKN025,0.01,76.00,VWS V14.01,2013-03-23 03:19:00,
2013-03-22 23:24:00,72.6,68.8,29.95,SE,128,4.0,6.0,88,0.00,,BKN025,0.01,76.00,VWS V14.01,2013-03-23 03:24:00,
2013-03-22 23:29:00,72.6,68.8,29.96,SE,134,1.0,2.0,88,0.00,,BKN025,0.01,76.00,VWS V14.01,2013-03-23 03:29:00,
2013-03-22 23:34:00,72.6,68.8,29.96,SE,143,1.0,3.0,88,0.00,,BKN025,0.01,76.00,VWS V14.01,2013-03-23 03:34:00,
2013-03-22 23:39:00,72.6,68.8,29.96,SE,134,2.0,3.0,88,0.00,,BKN025,0.01,76.00,VWS V14.01,2013-03-23 03:39:00,
2013-03-22 23:44:00,72.6,68.8,29.96,SE,138,0.0,2.0,88,0.00,,BKN025,0.01,76.00,VWS V14.01,2013-03-23 03:44:00,
2013-03-22 23:49:00,72.6,68.8,29.96,SE,139,1.0,3.0,88,0.00,,BKN025,0.01,76.00,VWS V14.01,2013-03-23 03:49:00,
2013-03-22 23:54:00,72.5,68.8,29.96,SE,139,1.0,3.0,88,0.00,,BKN025,0.01,76.00,VWS V14.01,2013-03-23 03:54:00,
2013-03-22 23:59:00,72.4,68.7,29.95,SE,139,0.0,2.0,88,0.00,,BKN025,0.01,76.00,VWS V14.01,2013-03-23 03:59:00,